sensor_id;sensor_type;location;lat;lon;timestamp;temperature;humidity
20858;DHT22;10589;53.636;10.012;2023-03-01T04:46:36;-0.50;99.90
20858;DHT22;10589;53.636;10.012;2023-03-01T04:49:02;-0.50;99.90
20858;DHT22;10589;53.636;10.012;2023-03-01T04:51:28;-0.40;99.90
20858;DHT22;10589;53.636;10.012;2023-03-01T04:53:54;-0.30;99.90
20858;DHT22;10589;53.636;10.012;2023-03-01T04:56:20;-0.30;99.90
20858;DHT22;10589;53.636;10.012;2023-03-01T04:58:48;-0.20;99.90
20858;DHT22;10589;53.636;10.012;2023-03-01T05:01:19;-0.20;99.90
20858;DHT22;10589;53.636;10.012;2023-03-01T05:03:49;-0.20;99.90
20858;DHT22;10589;53.636;10.012;2023-03-01T05:06:16;-0.20;99.90
20858;DHT22;10589;53.636;10.012;2023-03-01T05:08:43;-0.20;99.90
20858;DHT22;10589;53.636;10.012;2023-03-01T05:11:08;-0.10;99.90
20858;DHT22;10589;53.636;10.012;2023-03-01T05:13:35;0.00;99.90
20858;DHT22;10589;53.636;10.012;2023-03-01T05:16:02;0.00;99.90
20858;DHT22;10589;53.636;10.012;2023-03-01T05:18:30;0.00;99.90
20858;DHT22;10589;53.636;10.012;2023-03-01T05:21:02;0.00;99.90
20858;DHT22;10589;53.636;10.012;2023-03-01T05:23:30;0.00;99.90
20858;DHT22;10589;53.636;10.012;2023-03-01T05:25:58;0.10;99.90
20858;DHT22;10589;53.636;10.012;2023-03-01T05:28:25;0.10;99.90
20858;DHT22;10589;53.636;10.012;2023-03-01T05:30:51;0.10;99.90
20858;DHT22;10589;53.636;10.012;2023-03-01T05:33:17;0.20;99.90
20858;DHT22;10589;53.636;10.012;2023-03-01T05:35:44;0.10;99.90
20858;DHT22;10589;53.636;10.012;2023-03-01T05:38:11;0.10;99.90
20858;DHT22;10589;53.636;10.012;2023-03-01T05:40:45;0.10;99.90
20858;DHT22;10589;53.636;10.012;2023-03-01T05:43:13;0.10;99.90
20858;DHT22;10589;53.636;10.012;2023-03-01T05:45:40;0.10;99.90
20858;DHT22;10589;53.636;10.012;2023-03-01T05:48:06;0.20;99.90
20858;DHT22;10589;53.636;10.012;2023-03-01T05:50:35;0.20;99.90
20858;DHT22;10589;53.636;10.012;2023-03-01T05:53:04;0.20;99.90
20858;DHT22;10589;53.636;10.012;2023-03-01T05:55:34;0.20;99.90
20858;DHT22;10589;53.636;10.012;2023-03-01T05:58:01;0.20;99.90
20858;DHT22;10589;53.636;10.012;2023-03-01T06:00:28;0.20;99.90
20858;DHT22;10589;53.636;10.012;2023-03-01T06:02:54;0.30;99.90
20858;DHT22;10589;53.636;10.012;2023-03-01T06:05:21;0.30;99.90
20858;DHT22;10589;53.636;10.012;2023-03-01T06:07:47;0.30;99.90
20858;DHT22;10589;53.636;10.012;2023-03-01T06:10:13;0.20;99.90
20858;DHT22;10589;53.636;10.012;2023-03-01T06:12:41;0.10;99.90
20858;DHT22;10589;53.636;10.012;2023-03-01T06:15:08;0.00;99.90
20858;DHT22;10589;53.636;10.012;2023-03-01T06:17:36;-0.10;99.90
20858;DHT22;10589;53.636;10.012;2023-03-01T06:20:08;-0.20;99.90
20858;DHT22;10589;53.636;10.012;2023-03-01T06:22:34;-0.20;99.90
20858;DHT22;10589;53.636;10.012;2023-03-01T06:25:00;-0.30;99.90
20858;DHT22;10589;53.636;10.012;2023-03-01T06:27:25;-0.40;99.90
20858;DHT22;10589;53.636;10.012;2023-03-01T06:29:51;-0.40;99.90
20858;DHT22;10589;53.636;10.012;2023-03-01T06:32:16;-0.40;99.90
20858;DHT22;10589;53.636;10.012;2023-03-01T06:34:42;-0.40;99.90
20858;DHT22;10589;53.636;10.012;2023-03-01T06:37:08;-0.30;99.90
20858;DHT22;10589;53.636;10.012;2023-03-01T06:39:34;-0.30;99.90
20858;DHT22;10589;53.636;10.012;2023-03-01T06:41:59;-0.20;99.90
20858;DHT22;10589;53.636;10.012;2023-03-01T06:44:25;-0.10;99.90
20858;DHT22;10589;53.636;10.012;2023-03-01T06:46:50;0.00;99.90
20858;DHT22;10589;53.636;10.012;2023-03-01T06:49:16;0.10;99.90
20858;DHT22;10589;53.636;10.012;2023-03-01T06:51:43;0.20;99.90
20858;DHT22;10589;53.636;10.012;2023-03-01T06:54:09;0.30;99.90
20858;DHT22;10589;53.636;10.012;2023-03-01T06:56:35;0.40;99.90
20858;DHT22;10589;53.636;10.012;2023-03-01T06:59:01;0.50;99.90
20858;DHT22;10589;53.636;10.012;2023-03-01T07:01:28;0.50;99.90
20858;DHT22;10589;53.636;10.012;2023-03-01T07:03:54;0.50;99.90
20858;DHT22;10589;53.636;10.012;2023-03-01T07:06:20;0.50;99.90
20858;DHT22;10589;53.636;10.012;2023-03-01T07:08:45;0.60;99.90
20858;DHT22;10589;53.636;10.012;2023-03-01T07:11:11;0.70;99.90
20858;DHT22;10589;53.636;10.012;2023-03-01T07:13:37;0.80;99.90
20858;DHT22;10589;53.636;10.012;2023-03-01T07:16:02;0.80;99.90
20858;DHT22;10589;53.636;10.012;2023-03-01T07:18:28;0.90;99.90
20858;DHT22;10589;53.636;10.012;2023-03-01T07:20:53;0.90;99.90
20858;DHT22;10589;53.636;10.012;2023-03-01T07:23:19;1.00;99.90
20858;DHT22;10589;53.636;10.012;2023-03-01T07:25:51;0.90;99.90
20858;DHT22;10589;53.636;10.012;2023-03-01T07:28:17;1.00;99.90
20858;DHT22;10589;53.636;10.012;2023-03-01T07:30:42;1.00;99.90
20858;DHT22;10589;53.636;10.012;2023-03-01T07:33:08;1.20;99.90
20858;DHT22;10589;53.636;10.012;2023-03-01T07:35:33;1.20;99.90
20858;DHT22;10589;53.636;10.012;2023-03-01T07:37:59;1.20;99.90
20858;DHT22;10589;53.636;10.012;2023-03-01T07:40:25;1.30;99.90
20858;DHT22;10589;53.636;10.012;2023-03-01T07:42:55;1.30;99.90
20858;DHT22;10589;53.636;10.012;2023-03-01T07:45:21;1.40;99.90
20858;DHT22;10589;53.636;10.012;2023-03-01T07:47:47;1.40;99.90
20858;DHT22;10589;53.636;10.012;2023-03-01T07:50:12;1.40;99.90
20858;DHT22;10589;53.636;10.012;2023-03-01T07:52:39;1.40;99.90
20858;DHT22;10589;53.636;10.012;2023-03-01T07:55:05;1.40;99.90
20858;DHT22;10589;53.636;10.012;2023-03-01T07:57:30;1.50;99.90
20858;DHT22;10589;53.636;10.012;2023-03-01T07:59:56;1.60;99.90
20858;DHT22;10589;53.636;10.012;2023-03-01T08:02:22;1.50;99.90
20858;DHT22;10589;53.636;10.012;2023-03-01T08:04:48;1.40;99.90
20858;DHT22;10589;53.636;10.012;2023-03-01T08:07:13;1.50;99.90
20858;DHT22;10589;53.636;10.012;2023-03-01T08:09:39;1.50;99.90
20858;DHT22;10589;53.636;10.012;2023-03-01T08:12:05;1.60;99.90
20858;DHT22;10589;53.636;10.012;2023-03-01T08:14:32;1.60;99.90
20858;DHT22;10589;53.636;10.012;2023-03-01T08:16:58;1.60;99.90
20858;DHT22;10589;53.636;10.012;2023-03-01T08:19:23;1.70;99.90
20858;DHT22;10589;53.636;10.012;2023-03-01T08:21:49;1.80;99.90
20858;DHT22;10589;53.636;10.012;2023-03-01T08:24:15;2.20;99.90
20858;DHT22;10589;53.636;10.012;2023-03-01T08:26:41;2.30;99.90
20858;DHT22;10589;53.636;10.012;2023-03-01T08:29:06;2.20;99.90
20858;DHT22;10589;53.636;10.012;2023-03-01T08:31:37;2.10;99.90
20858;DHT22;10589;53.636;10.012;2023-03-01T08:34:07;2.20;99.90
20858;DHT22;10589;53.636;10.012;2023-03-01T08:36:36;2.10;99.90
20858;DHT22;10589;53.636;10.012;2023-03-01T08:39:03;2.00;99.90
20858;DHT22;10589;53.636;10.012;2023-03-01T08:41:29;1.90;99.90
20858;DHT22;10589;53.636;10.012;2023-03-01T08:43:55;1.90;99.90
20858;DHT22;10589;53.636;10.012;2023-03-01T08:46:25;1.90;99.90
20858;DHT22;10589;53.636;10.012;2023-03-01T08:48:51;2.00;99.90
20858;DHT22;10589;53.636;10.012;2023-03-01T08:51:18;2.00;99.90
20858;DHT22;10589;53.636;10.012;2023-03-01T08:53:44;2.20;99.90
20858;DHT22;10589;53.636;10.012;2023-03-01T08:56:11;2.30;99.90
20858;DHT22;10589;53.636;10.012;2023-03-01T08:58:37;2.50;99.90
20858;DHT22;10589;53.636;10.012;2023-03-01T09:01:17;2.70;99.90
20858;DHT22;10589;53.636;10.012;2023-03-01T09:03:44;3.10;99.90
20858;DHT22;10589;53.636;10.012;2023-03-01T09:06:10;3.20;99.90
20858;DHT22;10589;53.636;10.012;2023-03-01T09:08:38;3.40;99.90
20858;DHT22;10589;53.636;10.012;2023-03-01T09:11:05;3.50;99.90
20858;DHT22;10589;53.636;10.012;2023-03-01T09:13:31;3.70;99.90
20858;DHT22;10589;53.636;10.012;2023-03-01T09:15:58;3.80;99.90
20858;DHT22;10589;53.636;10.012;2023-03-01T09:18:24;4.00;99.90
20858;DHT22;10589;53.636;10.012;2023-03-01T09:20:49;4.10;99.90
20858;DHT22;10589;53.636;10.012;2023-03-01T09:23:15;4.10;99.90
20858;DHT22;10589;53.636;10.012;2023-03-01T09:25:41;4.40;99.90
20858;DHT22;10589;53.636;10.012;2023-03-01T09:28:06;4.40;99.90
20858;DHT22;10589;53.636;10.012;2023-03-01T09:30:32;4.40;99.90
20858;DHT22;10589;53.636;10.012;2023-03-01T09:32:58;4.50;99.90
20858;DHT22;10589;53.636;10.012;2023-03-01T09:35:24;4.60;99.90
20858;DHT22;10589;53.636;10.012;2023-03-01T09:37:49;4.50;99.90
20858;DHT22;10589;53.636;10.012;2023-03-01T09:40:23;4.60;99.90
20858;DHT22;10589;53.636;10.012;2023-03-01T09:42:56;4.50;99.90
20858;DHT22;10589;53.636;10.012;2023-03-01T09:45:33;4.60;99.90
20858;DHT22;10589;53.636;10.012;2023-03-01T09:48:00;4.60;99.90
20858;DHT22;10589;53.636;10.012;2023-03-01T09:50:33;4.60;99.90
20858;DHT22;10589;53.636;10.012;2023-03-01T09:53:06;4.70;99.90
20858;DHT22;10589;53.636;10.012;2023-03-01T09:55:55;4.80;99.90
20858;DHT22;10589;53.636;10.012;2023-03-01T10:00:50;5.00;99.90
20858;DHT22;10589;53.636;10.012;2023-03-01T10:03:21;5.10;99.90
20858;DHT22;10589;53.636;10.012;2023-03-01T10:06:03;5.10;99.90
20858;DHT22;10589;53.636;10.012;2023-03-01T10:08:43;5.40;99.90
20858;DHT22;10589;53.636;10.012;2023-03-01T10:11:20;5.50;99.90
20858;DHT22;10589;53.636;10.012;2023-03-01T10:17:05;5.40;99.90
20858;DHT22;10589;53.636;10.012;2023-03-01T10:19:31;4.90;99.90
20858;DHT22;10589;53.636;10.012;2023-03-01T10:22:03;4.60;99.90
20858;DHT22;10589;53.636;10.012;2023-03-01T10:24:33;4.70;99.90
20858;DHT22;10589;53.636;10.012;2023-03-01T10:27:15;4.60;99.90
20858;DHT22;10589;53.636;10.012;2023-03-01T10:30:11;4.60;99.90
20858;DHT22;10589;53.636;10.012;2023-03-01T10:32:39;4.60;99.90
20858;DHT22;10589;53.636;10.012;2023-03-01T10:35:24;4.40;99.90
20858;DHT22;10589;53.636;10.012;2023-03-01T10:40:23;4.40;99.90
20858;DHT22;10589;53.636;10.012;2023-03-01T10:42:49;4.60;99.90
20858;DHT22;10589;53.636;10.012;2023-03-01T10:48:15;5.00;99.90
20858;DHT22;10589;53.636;10.012;2023-03-01T10:50:49;5.10;99.90
20858;DHT22;10589;53.636;10.012;2023-03-01T10:53:27;5.40;99.90
20858;DHT22;10589;53.636;10.012;2023-03-01T10:56:12;5.40;99.90
20858;DHT22;10589;53.636;10.012;2023-03-01T10:59:01;5.50;99.90
20858;DHT22;10589;53.636;10.012;2023-03-01T11:01:34;5.60;99.90
20858;DHT22;10589;53.636;10.012;2023-03-01T11:06:36;6.20;99.90
20858;DHT22;10589;53.636;10.012;2023-03-01T11:09:20;6.30;99.90
20858;DHT22;10589;53.636;10.012;2023-03-01T11:11:51;6.50;99.90
20858;DHT22;10589;53.636;10.012;2023-03-01T11:14:21;6.60;99.90
20858;DHT22;10589;53.636;10.012;2023-03-01T11:16:57;6.70;99.90
20858;DHT22;10589;53.636;10.012;2023-03-01T11:19:25;6.80;99.90
20858;DHT22;10589;53.636;10.012;2023-03-01T11:22:07;7.10;99.90
20858;DHT22;10589;53.636;10.012;2023-03-01T11:24:48;7.20;99.90
20858;DHT22;10589;53.636;10.012;2023-03-01T11:27:38;7.20;99.90
20858;DHT22;10589;53.636;10.012;2023-03-01T11:33:13;7.40;99.90
20858;DHT22;10589;53.636;10.012;2023-03-01T11:35:49;7.50;99.90
20858;DHT22;10589;53.636;10.012;2023-03-01T11:38:25;7.40;99.90
20858;DHT22;10589;53.636;10.012;2023-03-01T11:40:55;7.70;99.90
20858;DHT22;10589;53.636;10.012;2023-03-01T11:46:35;7.60;99.90
20858;DHT22;10589;53.636;10.012;2023-03-01T12:03:01;8.40;99.90
20858;DHT22;10589;53.636;10.012;2023-03-01T12:16:35;8.70;99.90
20858;DHT22;10589;53.636;10.012;2023-03-01T12:36:10;9.10;99.90
20858;DHT22;10589;53.636;10.012;2023-03-01T12:41:51;9.40;99.90
20858;DHT22;10589;53.636;10.012;2023-03-01T12:44:29;9.40;99.90
20858;DHT22;10589;53.636;10.012;2023-03-01T12:49:46;9.60;99.90
20858;DHT22;10589;53.636;10.012;2023-03-01T12:52:40;9.60;99.90
20858;DHT22;10589;53.636;10.012;2023-03-01T12:55:35;9.80;99.90
20858;DHT22;10589;53.636;10.012;2023-03-01T13:01:15;10.10;99.90
20858;DHT22;10589;53.636;10.012;2023-03-01T13:09:22;10.30;99.90
20858;DHT22;10589;53.636;10.012;2023-03-01T13:11:49;10.70;99.90
20858;DHT22;10589;53.636;10.012;2023-03-01T13:16:47;12.70;99.90
20858;DHT22;10589;53.636;10.012;2023-03-01T13:19:22;13.70;99.90
20858;DHT22;10589;53.636;10.012;2023-03-01T13:21:49;14.10;99.90
20858;DHT22;10589;53.636;10.012;2023-03-01T13:24:35;14.70;99.90
20858;DHT22;10589;53.636;10.012;2023-03-01T13:32:37;18.00;99.90
20858;DHT22;10589;53.636;10.012;2023-03-01T13:35:42;18.50;99.90
20858;DHT22;10589;53.636;10.012;2023-03-01T13:38:44;19.30;99.90
20858;DHT22;10589;53.636;10.012;2023-03-01T13:41:12;19.20;99.90
20858;DHT22;10589;53.636;10.012;2023-03-01T13:43:41;19.90;99.90
20858;DHT22;10589;53.636;10.012;2023-03-01T13:46:15;20.50;99.90
20858;DHT22;10589;53.636;10.012;2023-03-01T13:48:44;20.70;99.90
20858;DHT22;10589;53.636;10.012;2023-03-01T13:51:10;20.70;99.90
20858;DHT22;10589;53.636;10.012;2023-03-01T13:53:43;20.70;99.90
20858;DHT22;10589;53.636;10.012;2023-03-01T13:56:20;20.80;99.90
20858;DHT22;10589;53.636;10.012;2023-03-01T13:58:56;20.90;99.90
20858;DHT22;10589;53.636;10.012;2023-03-01T14:01:28;20.10;99.90
20858;DHT22;10589;53.636;10.012;2023-03-01T14:03:55;20.50;99.90
20858;DHT22;10589;53.636;10.012;2023-03-01T14:06:31;21.00;99.90
20858;DHT22;10589;53.636;10.012;2023-03-01T14:09:14;21.30;99.90
20858;DHT22;10589;53.636;10.012;2023-03-01T14:15:27;21.70;99.90
20858;DHT22;10589;53.636;10.012;2023-03-01T14:18:19;22.10;99.90
20858;DHT22;10589;53.636;10.012;2023-03-01T14:20:48;22.90;99.90
20858;DHT22;10589;53.636;10.012;2023-03-01T14:23:21;23.10;99.90
20858;DHT22;10589;53.636;10.012;2023-03-01T14:28:24;23.10;99.90
20858;DHT22;10589;53.636;10.012;2023-03-01T14:30:54;21.90;99.90
20858;DHT22;10589;53.636;10.012;2023-03-01T14:33:26;20.80;99.90
20858;DHT22;10589;53.636;10.012;2023-03-01T14:41:07;22.70;99.90
20858;DHT22;10589;53.636;10.012;2023-03-01T14:43:35;23.80;99.90
20858;DHT22;10589;53.636;10.012;2023-03-01T14:46:01;22.60;99.90
20858;DHT22;10589;53.636;10.012;2023-03-01T14:48:28;20.50;99.90
20858;DHT22;10589;53.636;10.012;2023-03-01T14:50:55;19.90;99.90
20858;DHT22;10589;53.636;10.012;2023-03-01T14:53:27;21.90;99.90
20858;DHT22;10589;53.636;10.012;2023-03-01T14:55:56;23.10;99.90
20858;DHT22;10589;53.636;10.012;2023-03-01T14:58:25;22.00;99.90
20858;DHT22;10589;53.636;10.012;2023-03-01T15:00:54;21.30;99.90
20858;DHT22;10589;53.636;10.012;2023-03-01T15:03:27;22.40;99.30
20858;DHT22;10589;53.636;10.012;2023-03-01T15:05:56;22.80;98.90
20858;DHT22;10589;53.636;10.012;2023-03-01T15:08:24;21.10;99.20
20858;DHT22;10589;53.636;10.012;2023-03-01T15:11:15;19.60;99.10
20858;DHT22;10589;53.636;10.012;2023-03-01T15:13:42;17.90;98.90
20858;DHT22;10589;53.636;10.012;2023-03-01T15:18:34;16.20;99.90
20858;DHT22;10589;53.636;10.012;2023-03-01T15:21:29;17.20;99.90
20858;DHT22;10589;53.636;10.012;2023-03-01T15:26:35;15.50;99.90
20858;DHT22;10589;53.636;10.012;2023-03-01T15:29:02;15.60;99.90
20858;DHT22;10589;53.636;10.012;2023-03-01T15:31:35;14.20;99.90
20858;DHT22;10589;53.636;10.012;2023-03-01T15:36:47;11.30;99.90
20858;DHT22;10589;53.636;10.012;2023-03-01T15:39:41;10.40;99.90
20858;DHT22;10589;53.636;10.012;2023-03-01T15:47:50;8.80;99.90
20858;DHT22;10589;53.636;10.012;2023-03-01T15:50:22;8.50;99.90
20858;DHT22;10589;53.636;10.012;2023-03-01T15:52:49;8.40;99.90
20858;DHT22;10589;53.636;10.012;2023-03-01T15:55:28;8.20;99.90
20858;DHT22;10589;53.636;10.012;2023-03-01T15:58:05;7.90;99.90
20858;DHT22;10589;53.636;10.012;2023-03-01T16:00:32;7.80;99.90
20858;DHT22;10589;53.636;10.012;2023-03-01T16:02:58;7.70;99.90
20858;DHT22;10589;53.636;10.012;2023-03-01T16:05:32;7.60;99.90
20858;DHT22;10589;53.636;10.012;2023-03-01T16:08:00;7.40;99.90
20858;DHT22;10589;53.636;10.012;2023-03-01T16:10:26;7.30;99.90
20858;DHT22;10589;53.636;10.012;2023-03-01T16:12:52;7.20;99.90
20858;DHT22;10589;53.636;10.012;2023-03-01T16:15:23;7.10;99.90
20858;DHT22;10589;53.636;10.012;2023-03-01T16:17:49;7.00;99.90
20858;DHT22;10589;53.636;10.012;2023-03-01T16:20:15;7.00;99.90
20858;DHT22;10589;53.636;10.012;2023-03-01T16:22:43;6.90;99.90
20858;DHT22;10589;53.636;10.012;2023-03-01T16:25:13;6.80;99.90
20858;DHT22;10589;53.636;10.012;2023-03-01T16:27:42;6.70;99.90
20858;DHT22;10589;53.636;10.012;2023-03-01T16:30:08;6.60;99.90
20858;DHT22;10589;53.636;10.012;2023-03-01T16:32:38;6.60;99.90
20858;DHT22;10589;53.636;10.012;2023-03-01T16:35:05;6.50;99.90
20858;DHT22;10589;53.636;10.012;2023-03-01T16:37:32;6.40;99.90
20858;DHT22;10589;53.636;10.012;2023-03-01T16:39:58;6.30;99.90
20858;DHT22;10589;53.636;10.012;2023-03-01T16:42:23;6.20;99.90
20858;DHT22;10589;53.636;10.012;2023-03-01T16:44:57;6.20;99.90
20858;DHT22;10589;53.636;10.012;2023-03-01T16:47:23;6.10;99.90
20858;DHT22;10589;53.636;10.012;2023-03-01T16:49:52;6.00;99.90
20858;DHT22;10589;53.636;10.012;2023-03-01T16:52:19;5.90;99.90
20858;DHT22;10589;53.636;10.012;2023-03-01T16:54:44;5.80;99.90
20858;DHT22;10589;53.636;10.012;2023-03-01T16:57:10;5.70;99.90
20858;DHT22;10589;53.636;10.012;2023-03-01T16:59:36;5.70;99.90
20858;DHT22;10589;53.636;10.012;2023-03-01T17:02:08;5.60;99.90
20858;DHT22;10589;53.636;10.012;2023-03-01T17:04:35;5.50;99.90
20858;DHT22;10589;53.636;10.012;2023-03-01T17:07:01;5.50;99.90
20858;DHT22;10589;53.636;10.012;2023-03-01T17:09:26;5.40;99.90
20858;DHT22;10589;53.636;10.012;2023-03-01T17:11:52;5.30;99.90
20858;DHT22;10589;53.636;10.012;2023-03-01T17:14:19;5.20;99.90
20858;DHT22;10589;53.636;10.012;2023-03-01T17:16:45;5.10;99.90
20858;DHT22;10589;53.636;10.012;2023-03-01T17:19:11;5.00;99.90
20858;DHT22;10589;53.636;10.012;2023-03-01T17:21:38;4.90;99.90
20858;DHT22;10589;53.636;10.012;2023-03-01T17:24:03;4.80;99.90
20858;DHT22;10589;53.636;10.012;2023-03-01T17:26:29;4.80;99.90
20858;DHT22;10589;53.636;10.012;2023-03-01T17:28:56;4.70;99.90
20858;DHT22;10589;53.636;10.012;2023-03-01T17:31:21;4.70;99.90
20858;DHT22;10589;53.636;10.012;2023-03-01T17:33:48;4.60;99.90
20858;DHT22;10589;53.636;10.012;2023-03-01T17:36:15;4.50;99.90
20858;DHT22;10589;53.636;10.012;2023-03-01T17:38:40;4.40;99.90
20858;DHT22;10589;53.636;10.012;2023-03-01T17:41:06;4.30;99.90
20858;DHT22;10589;53.636;10.012;2023-03-01T17:43:32;4.20;99.90
20858;DHT22;10589;53.636;10.012;2023-03-01T17:45:59;4.10;99.90
20858;DHT22;10589;53.636;10.012;2023-03-01T17:48:25;3.90;99.90
20858;DHT22;10589;53.636;10.012;2023-03-01T17:50:51;3.80;99.90
20858;DHT22;10589;53.636;10.012;2023-03-01T17:53:16;3.60;99.90
20858;DHT22;10589;53.636;10.012;2023-03-01T17:55:43;3.50;99.90
20858;DHT22;10589;53.636;10.012;2023-03-01T17:58:12;3.40;99.90
20858;DHT22;10589;53.636;10.012;2023-03-01T18:00:38;3.20;99.90
20858;DHT22;10589;53.636;10.012;2023-03-01T18:03:04;3.10;99.90
20858;DHT22;10589;53.636;10.012;2023-03-01T18:05:37;3.00;99.90
20858;DHT22;10589;53.636;10.012;2023-03-01T18:08:03;2.90;99.90
20858;DHT22;10589;53.636;10.012;2023-03-01T18:10:30;2.90;99.90
20858;DHT22;10589;53.636;10.012;2023-03-01T18:12:56;2.80;99.90
20858;DHT22;10589;53.636;10.012;2023-03-01T18:15:22;2.70;99.90
20858;DHT22;10589;53.636;10.012;2023-03-01T18:17:47;2.60;99.90
20858;DHT22;10589;53.636;10.012;2023-03-01T18:20:13;2.40;99.90
20858;DHT22;10589;53.636;10.012;2023-03-01T18:22:40;2.40;99.90
20858;DHT22;10589;53.636;10.012;2023-03-01T18:25:06;2.30;99.90
20858;DHT22;10589;53.636;10.012;2023-03-01T18:27:32;2.20;99.90
20858;DHT22;10589;53.636;10.012;2023-03-01T18:29:58;2.00;99.90
20858;DHT22;10589;53.636;10.012;2023-03-01T18:32:23;1.90;99.90
20858;DHT22;10589;53.636;10.012;2023-03-01T18:34:50;1.90;99.90
20858;DHT22;10589;53.636;10.012;2023-03-01T18:37:16;1.90;99.90
20858;DHT22;10589;53.636;10.012;2023-03-01T18:39:42;1.90;99.90
20858;DHT22;10589;53.636;10.012;2023-03-01T18:42:08;1.90;99.90
20858;DHT22;10589;53.636;10.012;2023-03-01T18:44:34;2.00;99.90
20858;DHT22;10589;53.636;10.012;2023-03-01T18:47:00;2.00;99.90
20858;DHT22;10589;53.636;10.012;2023-03-01T18:49:25;2.00;99.90
20858;DHT22;10589;53.636;10.012;2023-03-01T18:51:51;2.10;99.90
20858;DHT22;10589;53.636;10.012;2023-03-01T18:54:17;2.10;99.90
20858;DHT22;10589;53.636;10.012;2023-03-01T18:56:43;2.10;99.90
20858;DHT22;10589;53.636;10.012;2023-03-01T18:59:09;2.20;99.90
20858;DHT22;10589;53.636;10.012;2023-03-01T19:01:35;2.20;99.90
20858;DHT22;10589;53.636;10.012;2023-03-01T19:04:00;2.20;99.90
20858;DHT22;10589;53.636;10.012;2023-03-01T19:06:31;2.20;99.90
20858;DHT22;10589;53.636;10.012;2023-03-01T19:08:57;2.20;99.90
20858;DHT22;10589;53.636;10.012;2023-03-01T19:11:23;2.10;99.90
20858;DHT22;10589;53.636;10.012;2023-03-01T19:13:52;2.20;99.90
20858;DHT22;10589;53.636;10.012;2023-03-01T19:16:23;2.20;99.90
20858;DHT22;10589;53.636;10.012;2023-03-01T19:19:02;2.20;99.90
20858;DHT22;10589;53.636;10.012;2023-03-01T19:21:30;2.20;99.90
20858;DHT22;10589;53.636;10.012;2023-03-01T19:23:57;2.30;99.90
20858;DHT22;10589;53.636;10.012;2023-03-01T19:26:26;2.30;99.90
20858;DHT22;10589;53.636;10.012;2023-03-01T19:28:57;2.30;99.90
20858;DHT22;10589;53.636;10.012;2023-03-01T19:31:32;2.20;99.90
20858;DHT22;10589;53.636;10.012;2023-03-01T19:33:59;2.20;99.90
20858;DHT22;10589;53.636;10.012;2023-03-01T19:36:27;2.20;99.90
20858;DHT22;10589;53.636;10.012;2023-03-01T19:39:05;2.20;99.90
20858;DHT22;10589;53.636;10.012;2023-03-01T19:41:34;2.30;99.90
20858;DHT22;10589;53.636;10.012;2023-03-01T19:44:07;2.30;99.90
20858;DHT22;10589;53.636;10.012;2023-03-01T19:46:40;2.30;99.90
20858;DHT22;10589;53.636;10.012;2023-03-01T19:49:13;2.30;99.90
20858;DHT22;10589;53.636;10.012;2023-03-01T19:51:40;2.30;99.90
20858;DHT22;10589;53.636;10.012;2023-03-01T19:54:09;2.20;99.90
20858;DHT22;10589;53.636;10.012;2023-03-01T19:56:41;2.10;99.90
20858;DHT22;10589;53.636;10.012;2023-03-01T19:59:11;2.20;99.90
20858;DHT22;10589;53.636;10.012;2023-03-01T20:01:38;2.20;99.90
20858;DHT22;10589;53.636;10.012;2023-03-01T20:04:07;2.20;99.90
20858;DHT22;10589;53.636;10.012;2023-03-01T20:06:38;2.10;99.90
20858;DHT22;10589;53.636;10.012;2023-03-01T20:09:06;2.10;99.90
20858;DHT22;10589;53.636;10.012;2023-03-01T20:11:33;2.00;99.90
20858;DHT22;10589;53.636;10.012;2023-03-01T20:13:59;2.00;99.90
20858;DHT22;10589;53.636;10.012;2023-03-01T20:16:25;2.10;99.90
20858;DHT22;10589;53.636;10.012;2023-03-01T20:18:59;2.10;99.90
20858;DHT22;10589;53.636;10.012;2023-03-01T20:21:27;2.10;99.90
20858;DHT22;10589;53.636;10.012;2023-03-01T20:23:54;2.10;99.90
20858;DHT22;10589;53.636;10.012;2023-03-01T20:26:29;2.00;99.90
20858;DHT22;10589;53.636;10.012;2023-03-01T20:29:00;2.10;99.90
20858;DHT22;10589;53.636;10.012;2023-03-01T20:31:26;2.10;99.90
20858;DHT22;10589;53.636;10.012;2023-03-01T20:34:00;2.10;99.90
20858;DHT22;10589;53.636;10.012;2023-03-01T20:36:38;2.10;99.90
20858;DHT22;10589;53.636;10.012;2023-03-01T20:39:09;2.10;99.90
20858;DHT22;10589;53.636;10.012;2023-03-01T20:41:39;2.10;99.90
20858;DHT22;10589;53.636;10.012;2023-03-01T20:44:08;2.10;99.90
20858;DHT22;10589;53.636;10.012;2023-03-01T20:46:35;2.10;99.90
20858;DHT22;10589;53.636;10.012;2023-03-01T20:49:03;2.10;99.90
20858;DHT22;10589;53.636;10.012;2023-03-01T20:51:39;2.10;99.90
20858;DHT22;10589;53.636;10.012;2023-03-01T20:54:08;2.10;99.90
20858;DHT22;10589;53.636;10.012;2023-03-01T20:56:35;2.00;99.90
20858;DHT22;10589;53.636;10.012;2023-03-01T20:59:03;2.00;99.90
20858;DHT22;10589;53.636;10.012;2023-03-01T21:01:29;2.10;99.90
20858;DHT22;10589;53.636;10.012;2023-03-01T21:03:58;2.10;99.90
20858;DHT22;10589;53.636;10.012;2023-03-01T21:06:24;2.10;99.90
20858;DHT22;10589;53.636;10.012;2023-03-01T21:08:50;2.10;99.90
20858;DHT22;10589;53.636;10.012;2023-03-01T21:11:16;2.00;99.90
20858;DHT22;10589;53.636;10.012;2023-03-01T21:13:49;2.00;99.90
20858;DHT22;10589;53.636;10.012;2023-03-01T21:16:17;1.90;99.90
20858;DHT22;10589;53.636;10.012;2023-03-01T21:18:44;1.90;99.90
20858;DHT22;10589;53.636;10.012;2023-03-01T21:21:15;1.90;99.90
20858;DHT22;10589;53.636;10.012;2023-03-01T21:23:42;1.90;99.90
20858;DHT22;10589;53.636;10.012;2023-03-01T21:26:21;1.90;99.90
20858;DHT22;10589;53.636;10.012;2023-03-01T21:28:53;1.90;99.90
20858;DHT22;10589;53.636;10.012;2023-03-01T21:31:24;1.80;99.90
20858;DHT22;10589;53.636;10.012;2023-03-01T21:33:54;1.80;99.90
20858;DHT22;10589;53.636;10.012;2023-03-01T21:36:22;1.80;99.90
20858;DHT22;10589;53.636;10.012;2023-03-01T21:38:49;1.80;99.90
20858;DHT22;10589;53.636;10.012;2023-03-01T21:43:46;1.70;99.90
20858;DHT22;10589;53.636;10.012;2023-03-01T21:46:21;1.70;99.90
20858;DHT22;10589;53.636;10.012;2023-03-01T21:48:49;1.70;99.90
20858;DHT22;10589;53.636;10.012;2023-03-01T21:51:17;1.70;99.90
20858;DHT22;10589;53.636;10.012;2023-03-01T21:53:43;1.70;99.90
20858;DHT22;10589;53.636;10.012;2023-03-01T21:56:12;1.70;99.90
20858;DHT22;10589;53.636;10.012;2023-03-01T21:58:39;1.70;99.90
20858;DHT22;10589;53.636;10.012;2023-03-01T22:01:10;1.70;99.90
20858;DHT22;10589;53.636;10.012;2023-03-01T22:03:37;1.60;99.90
20858;DHT22;10589;53.636;10.012;2023-03-01T22:06:12;1.60;99.90
20858;DHT22;10589;53.636;10.012;2023-03-01T22:08:51;1.60;99.90
20858;DHT22;10589;53.636;10.012;2023-03-01T22:11:20;1.60;99.90
20858;DHT22;10589;53.636;10.012;2023-03-01T22:13:48;1.60;99.90
20858;DHT22;10589;53.636;10.012;2023-03-01T22:16:20;1.50;99.90
20858;DHT22;10589;53.636;10.012;2023-03-01T22:18:47;1.50;99.90